sensor_id;sensor_type;location;lat;lon;timestamp;P1;P2;P0
63305;PMS5003;50735;52.060;1.248;2023-05-15T00:00:28;53;53;
63305;PMS5003;50735;52.060;1.248;2023-05-15T00:02:59;60;57;
63305;PMS5003;50735;52.060;1.248;2023-05-15T00:05:31;60;53;
63305;PMS5003;50735;52.060;1.248;2023-05-15T00:08:04;57;54;
63305;PMS5003;50735;52.060;1.248;2023-05-15T00:10:36;62;60;
63305;PMS5003;50735;52.060;1.248;2023-05-15T00:13:07;66;57;
63305;PMS5003;50735;52.060;1.248;2023-05-15T00:15:39;70;58;
63305;PMS5003;50735;52.060;1.248;2023-05-15T00:18:11;62;57;
63305;PMS5003;50735;52.060;1.248;2023-05-15T00:20:43;71;62;
63305;PMS5003;50735;52.060;1.248;2023-05-15T00:23:14;56;52;
63305;PMS5003;50735;52.060;1.248;2023-05-15T00:25:46;66;59;
63305;PMS5003;50735;52.060;1.248;2023-05-15T00:28:19;62;60;
63305;PMS5003;50735;52.060;1.248;2023-05-15T00:30:50;59;59;
63305;PMS5003;50735;52.060;1.248;2023-05-15T00:33:22;53;49;
63305;PMS5003;50735;52.060;1.248;2023-05-15T00:35:54;61;60;
63305;PMS5003;50735;52.060;1.248;2023-05-15T00:38:26;54;54;
63305;PMS5003;50735;52.060;1.248;2023-05-15T00:40:58;62;55;
63305;PMS5003;50735;52.060;1.248;2023-05-15T00:43:32;61;52;
63305;PMS5003;50735;52.060;1.248;2023-05-15T00:46:05;58;53;
63305;PMS5003;50735;52.060;1.248;2023-05-15T00:48:38;62;56;
63305;PMS5003;50735;52.060;1.248;2023-05-15T00:51:12;59;52;
63305;PMS5003;50735;52.060;1.248;2023-05-15T00:53:44;53;48;
63305;PMS5003;50735;52.060;1.248;2023-05-15T00:56:16;56;53;
63305;PMS5003;50735;52.060;1.248;2023-05-15T00:58:48;48;43;
63305;PMS5003;50735;52.060;1.248;2023-05-15T01:01:21;45;41;
63305;PMS5003;50735;52.060;1.248;2023-05-15T01:03:52;51;45;
63305;PMS5003;50735;52.060;1.248;2023-05-15T01:06:24;44;38;
63305;PMS5003;50735;52.060;1.248;2023-05-15T01:08:57;36;35;
63305;PMS5003;50735;52.060;1.248;2023-05-15T01:11:30;36;35;
63305;PMS5003;50735;52.060;1.248;2023-05-15T01:14:05;34;34;
63305;PMS5003;50735;52.060;1.248;2023-05-15T01:16:38;36;34;
63305;PMS5003;50735;52.060;1.248;2023-05-15T01:19:10;30;27;
63305;PMS5003;50735;52.060;1.248;2023-05-15T01:22:50;30;30;
63305;PMS5003;50735;52.060;1.248;2023-05-15T01:25:36;25;24;
63305;PMS5003;50735;52.060;1.248;2023-05-15T01:28:21;21;19;
63305;PMS5003;50735;52.060;1.248;2023-05-15T01:31:00;24;23;
63305;PMS5003;50735;52.060;1.248;2023-05-15T01:33:39;26;24;
63305;PMS5003;50735;52.060;1.248;2023-05-15T01:36:17;22;20;
63305;PMS5003;50735;52.060;1.248;2023-05-15T01:38:55;23;21;
63305;PMS5003;50735;52.060;1.248;2023-05-15T01:41:34;18;17;
63305;PMS5003;50735;52.060;1.248;2023-05-15T01:44:14;24;20;
63305;PMS5003;50735;52.060;1.248;2023-05-15T01:46:49;24;24;
63305;PMS5003;50735;52.060;1.248;2023-05-15T01:49:23;23;20;
63305;PMS5003;50735;52.060;1.248;2023-05-15T01:51:58;16;15;
63305;PMS5003;50735;52.060;1.248;2023-05-15T01:54:35;27;22;
63305;PMS5003;50735;52.060;1.248;2023-05-15T01:57:08;20;20;
63305;PMS5003;50735;52.060;1.248;2023-05-15T01:59:40;22;19;
63305;PMS5003;50735;52.060;1.248;2023-05-15T02:02:12;23;22;
63305;PMS5003;50735;52.060;1.248;2023-05-15T02:04:45;23;23;
63305;PMS5003;50735;52.060;1.248;2023-05-15T02:07:19;20;20;
63305;PMS5003;50735;52.060;1.248;2023-05-15T02:09:52;23;23;
63305;PMS5003;50735;52.060;1.248;2023-05-15T02:12:24;20;19;
63305;PMS5003;50735;52.060;1.248;2023-05-15T02:14:57;29;29;
63305;PMS5003;50735;52.060;1.248;2023-05-15T02:17:29;25;24;
63305;PMS5003;50735;52.060;1.248;2023-05-15T02:20:01;23;22;
63305;PMS5003;50735;52.060;1.248;2023-05-15T02:22:33;26;25;
63305;PMS5003;50735;52.060;1.248;2023-05-15T02:25:05;26;21;
63305;PMS5003;50735;52.060;1.248;2023-05-15T02:27:40;26;26;
63305;PMS5003;50735;52.060;1.248;2023-05-15T02:30:19;22;22;
63305;PMS5003;50735;52.060;1.248;2023-05-15T02:33:04;23;22;
63305;PMS5003;50735;52.060;1.248;2023-05-15T02:35:43;19;18;
63305;PMS5003;50735;52.060;1.248;2023-05-15T02:38:23;23;21;
63305;PMS5003;50735;52.060;1.248;2023-05-15T02:40:59;22;20;
63305;PMS5003;50735;52.060;1.248;2023-05-15T02:43:32;21;20;
63305;PMS5003;50735;52.060;1.248;2023-05-15T02:46:06;22;20;
63305;PMS5003;50735;52.060;1.248;2023-05-15T02:48:39;20;20;
63305;PMS5003;50735;52.060;1.248;2023-05-15T02:51:13;20;18;
63305;PMS5003;50735;52.060;1.248;2023-05-15T02:53:45;19;19;
63305;PMS5003;50735;52.060;1.248;2023-05-15T02:56:18;24;21;
63305;PMS5003;50735;52.060;1.248;2023-05-15T02:58:50;19;18;
63305;PMS5003;50735;52.060;1.248;2023-05-15T03:01:21;16;14;
63305;PMS5003;50735;52.060;1.248;2023-05-15T03:03:53;18;18;
63305;PMS5003;50735;52.060;1.248;2023-05-15T03:06:25;26;20;
63305;PMS5003;50735;52.060;1.248;2023-05-15T03:08:57;20;19;
63305;PMS5003;50735;52.060;1.248;2023-05-15T03:11:29;17;15;
63305;PMS5003;50735;52.060;1.248;2023-05-15T03:14:01;21;18;
63305;PMS5003;50735;52.060;1.248;2023-05-15T03:16:32;18;17;
63305;PMS5003;50735;52.060;1.248;2023-05-15T03:19:04;14;14;
63305;PMS5003;50735;52.060;1.248;2023-05-15T03:21:36;21;19;
63305;PMS5003;50735;52.060;1.248;2023-05-15T03:24:08;17;16;
63305;PMS5003;50735;52.060;1.248;2023-05-15T03:26:40;20;19;
63305;PMS5003;50735;52.060;1.248;2023-05-15T03:29:12;16;15;
63305;PMS5003;50735;52.060;1.248;2023-05-15T03:31:43;18;15;
63305;PMS5003;50735;52.060;1.248;2023-05-15T03:34:15;21;19;
63305;PMS5003;50735;52.060;1.248;2023-05-15T03:36:47;23;22;
63305;PMS5003;50735;52.060;1.248;2023-05-15T03:39:19;17;15;
63305;PMS5003;50735;52.060;1.248;2023-05-15T03:41:50;25;22;
63305;PMS5003;50735;52.060;1.248;2023-05-15T03:44:22;22;19;
63305;PMS5003;50735;52.060;1.248;2023-05-15T03:46:54;22;20;
63305;PMS5003;50735;52.060;1.248;2023-05-15T03:49:26;26;24;
63305;PMS5003;50735;52.060;1.248;2023-05-15T03:51:58;22;21;
63305;PMS5003;50735;52.060;1.248;2023-05-15T03:54:30;23;23;
63305;PMS5003;50735;52.060;1.248;2023-05-15T03:57:02;26;23;
63305;PMS5003;50735;52.060;1.248;2023-05-15T03:59:34;16;16;
63305;PMS5003;50735;52.060;1.248;2023-05-15T04:02:06;17;17;
63305;PMS5003;50735;52.060;1.248;2023-05-15T04:04:38;26;24;
63305;PMS5003;50735;52.060;1.248;2023-05-15T04:07:10;23;21;
63305;PMS5003;50735;52.060;1.248;2023-05-15T04:09:42;18;18;
63305;PMS5003;50735;52.060;1.248;2023-05-15T04:12:14;22;19;
63305;PMS5003;50735;52.060;1.248;2023-05-15T04:14:46;24;20;
63305;PMS5003;50735;52.060;1.248;2023-05-15T04:17:18;20;18;
63305;PMS5003;50735;52.060;1.248;2023-05-15T04:19:49;18;18;
63305;PMS5003;50735;52.060;1.248;2023-05-15T04:22:21;22;21;
63305;PMS5003;50735;52.060;1.248;2023-05-15T04:24:53;20;19;
63305;PMS5003;50735;52.060;1.248;2023-05-15T04:27:24;25;20;
63305;PMS5003;50735;52.060;1.248;2023-05-15T04:29:56;19;19;
63305;PMS5003;50735;52.060;1.248;2023-05-15T04:32:28;18;17;
63305;PMS5003;50735;52.060;1.248;2023-05-15T04:35:00;21;21;
63305;PMS5003;50735;52.060;1.248;2023-05-15T04:37:32;23;19;
63305;PMS5003;50735;52.060;1.248;2023-05-15T04:40:04;18;17;
63305;PMS5003;50735;52.060;1.248;2023-05-15T04:42:36;14;14;
63305;PMS5003;50735;52.060;1.248;2023-05-15T04:45:08;20;17;
63305;PMS5003;50735;52.060;1.248;2023-05-15T04:47:40;14;14;
63305;PMS5003;50735;52.060;1.248;2023-05-15T04:50:12;23;18;
63305;PMS5003;50735;52.060;1.248;2023-05-15T04:52:43;21;16;
63305;PMS5003;50735;52.060;1.248;2023-05-15T04:55:15;18;16;
63305;PMS5003;50735;52.060;1.248;2023-05-15T04:57:47;17;16;
63305;PMS5003;50735;52.060;1.248;2023-05-15T05:00:19;19;17;
63305;PMS5003;50735;52.060;1.248;2023-05-15T05:02:51;20;17;
63305;PMS5003;50735;52.060;1.248;2023-05-15T05:05:23;17;16;
63305;PMS5003;50735;52.060;1.248;2023-05-15T05:07:55;15;15;
63305;PMS5003;50735;52.060;1.248;2023-05-15T05:10:27;18;16;
63305;PMS5003;50735;52.060;1.248;2023-05-15T05:12:59;22;17;
63305;PMS5003;50735;52.060;1.248;2023-05-15T05:15:31;16;16;
63305;PMS5003;50735;52.060;1.248;2023-05-15T05:18:03;19;14;
63305;PMS5003;50735;52.060;1.248;2023-05-15T05:20:34;17;16;
63305;PMS5003;50735;52.060;1.248;2023-05-15T05:23:06;17;15;
63305;PMS5003;50735;52.060;1.248;2023-05-15T05:25:38;15;15;
63305;PMS5003;50735;52.060;1.248;2023-05-15T05:28:09;22;18;
63305;PMS5003;50735;52.060;1.248;2023-05-15T05:30:43;14;14;
63305;PMS5003;50735;52.060;1.248;2023-05-15T05:33:15;13;11;
63305;PMS5003;50735;52.060;1.248;2023-05-15T05:35:47;19;19;
63305;PMS5003;50735;52.060;1.248;2023-05-15T05:38:19;12;11;
63305;PMS5003;50735;52.060;1.248;2023-05-15T05:40:51;9;9;
63305;PMS5003;50735;52.060;1.248;2023-05-15T05:43:24;11;11;
63305;PMS5003;50735;52.060;1.248;2023-05-15T05:45:56;7;6;
63305;PMS5003;50735;52.060;1.248;2023-05-15T05:48:28;8;7;
63305;PMS5003;50735;52.060;1.248;2023-05-15T05:51:00;5;4;
63305;PMS5003;50735;52.060;1.248;2023-05-15T05:53:32;7;7;
63305;PMS5003;50735;52.060;1.248;2023-05-15T05:56:03;8;8;
63305;PMS5003;50735;52.060;1.248;2023-05-15T05:58:35;7;5;
63305;PMS5003;50735;52.060;1.248;2023-05-15T06:01:07;8;6;
63305;PMS5003;50735;52.060;1.248;2023-05-15T06:03:40;7;5;
63305;PMS5003;50735;52.060;1.248;2023-05-15T06:06:12;6;5;
63305;PMS5003;50735;52.060;1.248;2023-05-15T06:08:44;11;6;
63305;PMS5003;50735;52.060;1.248;2023-05-15T06:11:16;8;4;
63305;PMS5003;50735;52.060;1.248;2023-05-15T06:13:48;6;4;
63305;PMS5003;50735;52.060;1.248;2023-05-15T06:16:20;6;5;
63305;PMS5003;50735;52.060;1.248;2023-05-15T06:18:52;5;5;
63305;PMS5003;50735;52.060;1.248;2023-05-15T06:21:24;4;4;
63305;PMS5003;50735;52.060;1.248;2023-05-15T06:23:56;3;3;
63305;PMS5003;50735;52.060;1.248;2023-05-15T06:26:28;7;5;
63305;PMS5003;50735;52.060;1.248;2023-05-15T06:29:00;6;4;
63305;PMS5003;50735;52.060;1.248;2023-05-15T06:31:32;5;5;
63305;PMS5003;50735;52.060;1.248;2023-05-15T06:34:04;5;5;
63305;PMS5003;50735;52.060;1.248;2023-05-15T06:36:36;4;4;
63305;PMS5003;50735;52.060;1.248;2023-05-15T06:39:07;2;2;
63305;PMS5003;50735;52.060;1.248;2023-05-15T06:41:39;3;3;
63305;PMS5003;50735;52.060;1.248;2023-05-15T06:44:11;3;3;
63305;PMS5003;50735;52.060;1.248;2023-05-15T06:46:43;5;4;
63305;PMS5003;50735;52.060;1.248;2023-05-15T06:49:15;3;3;
63305;PMS5003;50735;52.060;1.248;2023-05-15T06:51:46;3;2;
63305;PMS5003;50735;52.060;1.248;2023-05-15T06:54:18;4;4;
63305;PMS5003;50735;52.060;1.248;2023-05-15T06:56:50;7;5;
63305;PMS5003;50735;52.060;1.248;2023-05-15T06:59:22;3;2;
63305;PMS5003;50735;52.060;1.248;2023-05-15T07:01:53;3;2;
63305;PMS5003;50735;52.060;1.248;2023-05-15T07:04:25;6;4;
63305;PMS5003;50735;52.060;1.248;2023-05-15T07:06:56;3;3;
63305;PMS5003;50735;52.060;1.248;2023-05-15T07:09:28;3;3;
63305;PMS5003;50735;52.060;1.248;2023-05-15T07:12:00;3;3;
63305;PMS5003;50735;52.060;1.248;2023-05-15T07:14:32;3;3;
63305;PMS5003;50735;52.060;1.248;2023-05-15T07:17:04;7;4;
63305;PMS5003;50735;52.060;1.248;2023-05-15T07:19:35;5;4;
63305;PMS5003;50735;52.060;1.248;2023-05-15T07:22:07;8;5;
63305;PMS5003;50735;52.060;1.248;2023-05-15T07:24:39;8;4;
63305;PMS5003;50735;52.060;1.248;2023-05-15T07:27:11;5;2;
63305;PMS5003;50735;52.060;1.248;2023-05-15T07:29:43;6;4;
63305;PMS5003;50735;52.060;1.248;2023-05-15T07:32:14;2;2;
63305;PMS5003;50735;52.060;1.248;2023-05-15T07:34:46;5;5;
63305;PMS5003;50735;52.060;1.248;2023-05-15T07:37:18;8;5;
63305;PMS5003;50735;52.060;1.248;2023-05-15T07:39:50;10;3;
63305;PMS5003;50735;52.060;1.248;2023-05-15T07:42:21;3;3;
63305;PMS5003;50735;52.060;1.248;2023-05-15T07:44:53;3;3;
63305;PMS5003;50735;52.060;1.248;2023-05-15T07:47:25;5;2;
63305;PMS5003;50735;52.060;1.248;2023-05-15T07:49:57;3;2;
63305;PMS5003;50735;52.060;1.248;2023-05-15T07:52:28;6;3;
63305;PMS5003;50735;52.060;1.248;2023-05-15T07:55:00;6;5;
63305;PMS5003;50735;52.060;1.248;2023-05-15T07:57:32;8;5;
63305;PMS5003;50735;52.060;1.248;2023-05-15T08:00:04;9;3;
63305;PMS5003;50735;52.060;1.248;2023-05-15T08:02:37;7;4;
63305;PMS5003;50735;52.060;1.248;2023-05-15T08:05:09;3;3;
63305;PMS5003;50735;52.060;1.248;2023-05-15T08:07:41;5;2;
63305;PMS5003;50735;52.060;1.248;2023-05-15T08:10:12;5;3;
63305;PMS5003;50735;52.060;1.248;2023-05-15T08:12:44;6;5;
63305;PMS5003;50735;52.060;1.248;2023-05-15T08:15:16;5;4;
63305;PMS5003;50735;52.060;1.248;2023-05-15T08:17:48;2;1;
63305;PMS5003;50735;52.060;1.248;2023-05-15T08:20:20;5;4;
63305;PMS5003;50735;52.060;1.248;2023-05-15T08:22:51;7;3;
63305;PMS5003;50735;52.060;1.248;2023-05-15T08:25:23;2;2;
63305;PMS5003;50735;52.060;1.248;2023-05-15T08:27:55;5;4;
63305;PMS5003;50735;52.060;1.248;2023-05-15T08:30:27;7;4;
63305;PMS5003;50735;52.060;1.248;2023-05-15T08:32:58;2;1;
63305;PMS5003;50735;52.060;1.248;2023-05-15T08:35:30;1;1;
63305;PMS5003;50735;52.060;1.248;2023-05-15T08:38:02;3;2;
63305;PMS5003;50735;52.060;1.248;2023-05-15T08:40:34;3;3;
63305;PMS5003;50735;52.060;1.248;2023-05-15T08:43:08;3;1;
63305;PMS5003;50735;52.060;1.248;2023-05-15T08:45:43;2;1;
63305;PMS5003;50735;52.060;1.248;2023-05-15T08:48:16;1;1;
63305;PMS5003;50735;52.060;1.248;2023-05-15T08:50:48;3;3;
63305;PMS5003;50735;52.060;1.248;2023-05-15T08:53:20;3;3;
63305;PMS5003;50735;52.060;1.248;2023-05-15T08:55:53;3;1;
63305;PMS5003;50735;52.060;1.248;2023-05-15T08:58:26;3;2;
63305;PMS5003;50735;52.060;1.248;2023-05-15T09:00:58;2;2;
63305;PMS5003;50735;52.060;1.248;2023-05-15T09:03:31;2;2;
63305;PMS5003;50735;52.060;1.248;2023-05-15T09:06:02;4;3;
63305;PMS5003;50735;52.060;1.248;2023-05-15T09:08:36;3;2;
63305;PMS5003;50735;52.060;1.248;2023-05-15T09:11:08;3;3;
63305;PMS5003;50735;52.060;1.248;2023-05-15T09:13:41;1;1;
63305;PMS5003;50735;52.060;1.248;2023-05-15T09:16:13;1;1;
63305;PMS5003;50735;52.060;1.248;2023-05-15T09:18:45;2;2;
63305;PMS5003;50735;52.060;1.248;2023-05-15T09:21:21;3;1;
63305;PMS5003;50735;52.060;1.248;2023-05-15T09:23:54;2;2;
63305;PMS5003;50735;52.060;1.248;2023-05-15T09:26:26;2;2;
63305;PMS5003;50735;52.060;1.248;2023-05-15T09:29:00;6;3;
63305;PMS5003;50735;52.060;1.248;2023-05-15T09:31:33;3;3;
63305;PMS5003;50735;52.060;1.248;2023-05-15T09:34:05;5;5;
63305;PMS5003;50735;52.060;1.248;2023-05-15T09:36:41;3;1;
63305;PMS5003;50735;52.060;1.248;2023-05-15T09:39:13;4;4;
63305;PMS5003;50735;52.060;1.248;2023-05-15T09:41:53;3;3;
63305;PMS5003;50735;52.060;1.248;2023-05-15T09:44:39;6;6;
63305;PMS5003;50735;52.060;1.248;2023-05-15T09:47:12;5;5;
63305;PMS5003;50735;52.060;1.248;2023-05-15T09:49:44;6;5;
63305;PMS5003;50735;52.060;1.248;2023-05-15T09:52:17;7;7;
63305;PMS5003;50735;52.060;1.248;2023-05-15T09:54:49;4;4;
63305;PMS5003;50735;52.060;1.248;2023-05-15T09:57:21;6;6;
63305;PMS5003;50735;52.060;1.248;2023-05-15T09:59:52;5;4;
63305;PMS5003;50735;52.060;1.248;2023-05-15T10:02:25;5;5;
63305;PMS5003;50735;52.060;1.248;2023-05-15T10:04:58;7;4;
63305;PMS5003;50735;52.060;1.248;2023-05-15T10:07:30;7;5;
63305;PMS5003;50735;52.060;1.248;2023-05-15T10:10:03;5;5;
63305;PMS5003;50735;52.060;1.248;2023-05-15T10:12:36;8;5;
63305;PMS5003;50735;52.060;1.248;2023-05-15T10:15:08;5;5;
63305;PMS5003;50735;52.060;1.248;2023-05-15T10:17:41;5;5;
63305;PMS5003;50735;52.060;1.248;2023-05-15T10:20:15;9;5;
63305;PMS5003;50735;52.060;1.248;2023-05-15T10:22:48;3;3;
63305;PMS5003;50735;52.060;1.248;2023-05-15T10:25:26;7;4;
63305;PMS5003;50735;52.060;1.248;2023-05-15T10:28:03;7;5;
63305;PMS5003;50735;52.060;1.248;2023-05-15T10:30:38;8;5;
63305;PMS5003;50735;52.060;1.248;2023-05-15T10:33:12;4;4;
63305;PMS5003;50735;52.060;1.248;2023-05-15T10:35:45;6;5;
63305;PMS5003;50735;52.060;1.248;2023-05-15T10:38:18;7;6;
63305;PMS5003;50735;52.060;1.248;2023-05-15T10:40:52;3;3;
63305;PMS5003;50735;52.060;1.248;2023-05-15T10:43:27;5;5;
63305;PMS5003;50735;52.060;1.248;2023-05-15T10:45:59;4;4;
63305;PMS5003;50735;52.060;1.248;2023-05-15T10:48:33;5;4;
63305;PMS5003;50735;52.060;1.248;2023-05-15T10:51:12;3;3;
63305;PMS5003;50735;52.060;1.248;2023-05-15T10:53:45;5;2;
63305;PMS5003;50735;52.060;1.248;2023-05-15T10:56:17;4;4;
63305;PMS5003;50735;52.060;1.248;2023-05-15T10:58:49;4;4;
63305;PMS5003;50735;52.060;1.248;2023-05-15T11:01:24;5;4;
63305;PMS5003;50735;52.060;1.248;2023-05-15T11:04:05;7;6;
63305;PMS5003;50735;52.060;1.248;2023-05-15T11:06:38;3;3;
63305;PMS5003;50735;52.060;1.248;2023-05-15T11:09:43;5;3;
63305;PMS5003;50735;52.060;1.248;2023-05-15T11:12:15;4;3;
63305;PMS5003;50735;52.060;1.248;2023-05-15T11:15:16;5;3;
63305;PMS5003;50735;52.060;1.248;2023-05-15T11:18:05;4;3;
63305;PMS5003;50735;52.060;1.248;2023-05-15T11:20:38;3;3;
63305;PMS5003;50735;52.060;1.248;2023-05-15T11:23:12;4;2;
63305;PMS5003;50735;52.060;1.248;2023-05-15T11:25:43;2;2;
63305;PMS5003;50735;52.060;1.248;2023-05-15T11:28:23;4;4;
63305;PMS5003;50735;52.060;1.248;2023-05-15T11:30:58;4;2;
63305;PMS5003;50735;52.060;1.248;2023-05-15T11:33:31;2;2;
63305;PMS5003;50735;52.060;1.248;2023-05-15T11:36:03;4;2;
63305;PMS5003;50735;52.060;1.248;2023-05-15T11:38:37;2;2;
63305;PMS5003;50735;52.060;1.248;2023-05-15T11:41:17;2;2;
63305;PMS5003;50735;52.060;1.248;2023-05-15T11:43:51;2;1;
63305;PMS5003;50735;52.060;1.248;2023-05-15T11:46:22;1;1;
63305;PMS5003;50735;52.060;1.248;2023-05-15T11:48:55;5;2;
63305;PMS5003;50735;52.060;1.248;2023-05-15T11:51:27;3;3;
63305;PMS5003;50735;52.060;1.248;2023-05-15T11:54:00;2;2;
63305;PMS5003;50735;52.060;1.248;2023-05-15T11:56:34;3;2;
63305;PMS5003;50735;52.060;1.248;2023-05-15T11:59:05;4;2;
63305;PMS5003;50735;52.060;1.248;2023-05-15T12:01:40;2;2;
63305;PMS5003;50735;52.060;1.248;2023-05-15T12:04:13;8;2;
63305;PMS5003;50735;52.060;1.248;2023-05-15T12:06:47;7;2;
63305;PMS5003;50735;52.060;1.248;2023-05-15T12:09:18;5;2;
63305;PMS5003;50735;52.060;1.248;2023-05-15T12:11:50;3;2;
63305;PMS5003;50735;52.060;1.248;2023-05-15T12:14:26;5;3;
63305;PMS5003;50735;52.060;1.248;2023-05-15T12:16:58;3;3;
63305;PMS5003;50735;52.060;1.248;2023-05-15T12:19:31;5;3;
63305;PMS5003;50735;52.060;1.248;2023-05-15T12:22:04;6;4;
63305;PMS5003;50735;52.060;1.248;2023-05-15T12:24:37;2;2;
63305;PMS5003;50735;52.060;1.248;2023-05-15T12:27:08;2;2;
63305;PMS5003;50735;52.060;1.248;2023-05-15T12:29:41;4;4;
63305;PMS5003;50735;52.060;1.248;2023-05-15T12:32:13;2;2;
63305;PMS5003;50735;52.060;1.248;2023-05-15T12:34:45;3;3;
63305;PMS5003;50735;52.060;1.248;2023-05-15T12:37:18;5;4;
63305;PMS5003;50735;52.060;1.248;2023-05-15T12:39:51;5;1;
63305;PMS5003;50735;52.060;1.248;2023-05-15T12:42:24;4;3;
63305;PMS5003;50735;52.060;1.248;2023-05-15T12:44:56;6;4;
63305;PMS5003;50735;52.060;1.248;2023-05-15T12:47:28;3;3;
63305;PMS5003;50735;52.060;1.248;2023-05-15T12:50:00;5;2;
63305;PMS5003;50735;52.060;1.248;2023-05-15T12:52:32;5;2;
63305;PMS5003;50735;52.060;1.248;2023-05-15T12:55:04;3;3;
63305;PMS5003;50735;52.060;1.248;2023-05-15T12:57:37;1;1;
63305;PMS5003;50735;52.060;1.248;2023-05-15T13:00:09;4;3;
63305;PMS5003;50735;52.060;1.248;2023-05-15T13:02:42;4;3;
63305;PMS5003;50735;52.060;1.248;2023-05-15T13:05:14;3;3;
63305;PMS5003;50735;52.060;1.248;2023-05-15T13:07:46;5;3;
63305;PMS5003;50735;52.060;1.248;2023-05-15T13:10:19;7;5;
63305;PMS5003;50735;52.060;1.248;2023-05-15T13:12:52;2;2;
63305;PMS5003;50735;52.060;1.248;2023-05-15T13:15:27;4;4;
63305;PMS5003;50735;52.060;1.248;2023-05-15T13:18:01;3;3;
63305;PMS5003;50735;52.060;1.248;2023-05-15T13:20:35;5;3;
63305;PMS5003;50735;52.060;1.248;2023-05-15T13:23:08;5;4;
63305;PMS5003;50735;52.060;1.248;2023-05-15T13:25:41;3;3;
63305;PMS5003;50735;52.060;1.248;2023-05-15T13:28:14;4;3;
63305;PMS5003;50735;52.060;1.248;2023-05-15T13:30:46;7;4;
63305;PMS5003;50735;52.060;1.248;2023-05-15T13:33:18;1;1;
63305;PMS5003;50735;52.060;1.248;2023-05-15T13:35:49;8;5;
63305;PMS5003;50735;52.060;1.248;2023-05-15T13:38:21;5;3;
63305;PMS5003;50735;52.060;1.248;2023-05-15T13:40:53;3;3;
63305;PMS5003;50735;52.060;1.248;2023-05-15T13:43:25;4;2;
63305;PMS5003;50735;52.060;1.248;2023-05-15T13:45:56;4;4;
63305;PMS5003;50735;52.060;1.248;2023-05-15T13:48:28;5;4;
63305;PMS5003;50735;52.060;1.248;2023-05-15T13:51:00;4;3;
63305;PMS5003;50735;52.060;1.248;2023-05-15T13:53:32;5;5;
63305;PMS5003;50735;52.060;1.248;2023-05-15T13:56:04;2;2;
63305;PMS5003;50735;52.060;1.248;2023-05-15T13:58:36;6;4;
63305;PMS5003;50735;52.060;1.248;2023-05-15T14:01:08;2;2;
63305;PMS5003;50735;52.060;1.248;2023-05-15T14:03:39;4;4;
63305;PMS5003;50735;52.060;1.248;2023-05-15T14:06:11;7;2;
63305;PMS5003;50735;52.060;1.248;2023-05-15T14:08:43;3;3;
63305;PMS5003;50735;52.060;1.248;2023-05-15T14:11:14;2;2;
63305;PMS5003;50735;52.060;1.248;2023-05-15T14:13:46;3;3;
63305;PMS5003;50735;52.060;1.248;2023-05-15T14:16:18;4;4;
63305;PMS5003;50735;52.060;1.248;2023-05-15T14:18:50;8;4;
63305;PMS5003;50735;52.060;1.248;2023-05-15T14:21:21;7;5;
63305;PMS5003;50735;52.060;1.248;2023-05-15T14:23:53;4;4;
63305;PMS5003;50735;52.060;1.248;2023-05-15T14:26:25;5;4;
63305;PMS5003;50735;52.060;1.248;2023-05-15T14:28:57;4;4;
63305;PMS5003;50735;52.060;1.248;2023-05-15T14:31:28;6;3;
63305;PMS5003;50735;52.060;1.248;2023-05-15T14:34:00;4;2;
63305;PMS5003;50735;52.060;1.248;2023-05-15T14:36:32;5;4;
63305;PMS5003;50735;52.060;1.248;2023-05-15T14:39:04;2;2;
63305;PMS5003;50735;52.060;1.248;2023-05-15T14:41:35;3;2;
63305;PMS5003;50735;52.060;1.248;2023-05-15T14:44:07;2;2;
63305;PMS5003;50735;52.060;1.248;2023-05-15T14:46:40;3;2;
63305;PMS5003;50735;52.060;1.248;2023-05-15T14:49:12;4;4;
63305;PMS5003;50735;52.060;1.248;2023-05-15T14:51:44;6;3;
63305;PMS5003;50735;52.060;1.248;2023-05-15T14:54:16;2;2;
63305;PMS5003;50735;52.060;1.248;2023-05-15T14:56:48;2;2;
63305;PMS5003;50735;52.060;1.248;2023-05-15T14:59:19;0;0;
63305;PMS5003;50735;52.060;1.248;2023-05-15T15:01:51;5;1;
63305;PMS5003;50735;52.060;1.248;2023-05-15T15:04:23;5;3;
63305;PMS5003;50735;52.060;1.248;2023-05-15T15:06:54;4;1;
63305;PMS5003;50735;52.060;1.248;2023-05-15T15:09:26;4;2;
63305;PMS5003;50735;52.060;1.248;2023-05-15T15:11:58;2;2;
63305;PMS5003;50735;52.060;1.248;2023-05-15T15:14:30;2;2;
63305;PMS5003;50735;52.060;1.248;2023-05-15T15:17:01;5;2;
63305;PMS5003;50735;52.060;1.248;2023-05-15T15:19:33;3;2;
63305;PMS5003;50735;52.060;1.248;2023-05-15T15:22:05;1;1;
63305;PMS5003;50735;52.060;1.248;2023-05-15T15:24:37;4;2;
63305;PMS5003;50735;52.060;1.248;2023-05-15T15:27:08;5;2;
63305;PMS5003;50735;52.060;1.248;2023-05-15T15:29:40;3;2;
63305;PMS5003;50735;52.060;1.248;2023-05-15T15:32:12;1;1;
63305;PMS5003;50735;52.060;1.248;2023-05-15T15:34:44;2;1;
63305;PMS5003;50735;52.060;1.248;2023-05-15T15:37:15;4;3;
63305;PMS5003;50735;52.060;1.248;2023-05-15T15:39:47;4;3;
63305;PMS5003;50735;52.060;1.248;2023-05-15T15:42:19;3;3;
63305;PMS5003;50735;52.060;1.248;2023-05-15T15:44:50;3;3;
63305;PMS5003;50735;52.060;1.248;2023-05-15T15:47:22;1;1;
63305;PMS5003;50735;52.060;1.248;2023-05-15T15:49:54;5;2;
63305;PMS5003;50735;52.060;1.248;2023-05-15T15:52:26;3;3;
63305;PMS5003;50735;52.060;1.248;2023-05-15T15:54:58;4;1;
63305;PMS5003;50735;52.060;1.248;2023-05-15T15:57:31;5;2;
63305;PMS5003;50735;52.060;1.248;2023-05-15T16:00:04;3;2;
63305;PMS5003;50735;52.060;1.248;2023-05-15T16:02:38;2;2;
63305;PMS5003;50735;52.060;1.248;2023-05-15T16:05:11;6;1;
63305;PMS5003;50735;52.060;1.248;2023-05-15T16:07:42;3;2;
63305;PMS5003;50735;52.060;1.248;2023-05-15T16:10:14;1;1;
63305;PMS5003;50735;52.060;1.248;2023-05-15T16:12:46;11;3;
63305;PMS5003;50735;52.060;1.248;2023-05-15T16:15:17;2;2;
63305;PMS5003;50735;52.060;1.248;2023-05-15T16:17:49;3;3;
63305;PMS5003;50735;52.060;1.248;2023-05-15T16:20:22;4;2;
63305;PMS5003;50735;52.060;1.248;2023-05-15T16:22:54;1;1;
63305;PMS5003;50735;52.060;1.248;2023-05-15T16:25:25;1;1;
63305;PMS5003;50735;52.060;1.248;2023-05-15T16:27:57;3;2;
63305;PMS5003;50735;52.060;1.248;2023-05-15T16:30:29;2;2;
63305;PMS5003;50735;52.060;1.248;2023-05-15T16:33:00;2;2;
63305;PMS5003;50735;52.060;1.248;2023-05-15T16:35:32;2;2;
63305;PMS5003;50735;52.060;1.248;2023-05-15T16:38:04;2;2;
63305;PMS5003;50735;52.060;1.248;2023-05-15T16:40:36;2;1;
63305;PMS5003;50735;52.060;1.248;2023-05-15T16:43:08;1;1;
63305;PMS5003;50735;52.060;1.248;2023-05-15T16:45:40;5;2;
63305;PMS5003;50735;52.060;1.248;2023-05-15T16:48:12;4;2;
63305;PMS5003;50735;52.060;1.248;2023-05-15T16:50:44;7;2;
63305;PMS5003;50735;52.060;1.248;2023-05-15T16:53:15;1;1;
63305;PMS5003;50735;52.060;1.248;2023-05-15T16:55:47;4;2;
63305;PMS5003;50735;52.060;1.248;2023-05-15T16:58:19;2;2;
63305;PMS5003;50735;52.060;1.248;2023-05-15T17:00:51;4;2;
63305;PMS5003;50735;52.060;1.248;2023-05-15T17:03:22;3;1;
63305;PMS5003;50735;52.060;1.248;2023-05-15T17:05:54;5;4;
63305;PMS5003;50735;52.060;1.248;2023-05-15T17:08:26;0;0;
63305;PMS5003;50735;52.060;1.248;2023-05-15T17:10:58;2;1;
63305;PMS5003;50735;52.060;1.248;2023-05-15T17:13:29;3;1;
63305;PMS5003;50735;52.060;1.248;2023-05-15T17:16:01;5;2;
63305;PMS5003;50735;52.060;1.248;2023-05-15T17:18:33;3;3;